Chadstone Weather > Observations for 10/03/21

Select Day:



Observations
Time Temp Hum DP Wind Gust Dir Rain >9am Press
C % C kph kph mm hPa
00:00 16.0 79 12.4 4.3 12.2 SSE 0.3 1003.5
00:10 16.0 79 12.4 2.8 11.2 S 0.3 1003.4
00:20 16.0 80 12.6 2.1 7.2 SE 0.3 1003.2
00:30 16.0 81 12.7 1.7 5.0 SSE 0.3 1003.4
00:40 15.9 82 12.8 1.6 7.2 SE 0.3 1003.3
00:50 15.9 83 13.0 1.1 5.0 SSE 0.3 1003.5
01:00 15.8 83 12.9 5.2 11.2 SSE 0.3 1003.3
01:10 15.8 83 12.9 4.7 13.3 SE 0.3 1003.5
01:20 15.7 83 12.8 3.9 9.7 S 0.3 1003.6
01:30 15.7 83 12.8 3.3 9.7 S 0.3 1003.6
01:40 15.8 83 12.9 3.7 7.2 ESE 0.3 1003.6
01:50 15.7 83 12.8 3.4 9.7 ESE 0.3 1003.5
02:00 15.5 84 12.8 4.0 12.2 SSE 0.3 1003.3
02:10 15.4 84 12.7 1.1 6.1 SE 0.3 1003.0
02:20 15.3 84 12.6 0.9 6.1 SE 0.3 1003.6
02:30 15.1 84 12.4 0.1 3.6 SE 0.3 1003.1
02:40 14.8 86 12.5 0.0 0.0 N 0.3 1002.9
02:50 14.5 86 12.2 0.0 0.0 N 0.3 1003.1
03:00 14.2 86 11.9 0.0 0.0 N 0.3 1002.9
03:10 14.0 87 11.9 0.0 0.0 N 0.3 1002.9
03:20 13.7 88 11.8 0.0 0.0 N 0.3 1002.9
03:30 13.6 89 11.8 0.0 0.0 N 0.3 1003.2
03:40 13.4 89 11.6 0.0 0.0 N 0.3 1003.0
03:50 13.3 89 11.5 0.0 0.0 N 0.3 1003.0
04:00 13.1 90 11.5 0.0 0.0 N 0.3 1002.9
04:10 12.9 91 11.5 0.0 0.0 N 0.3 1002.8
04:20 12.8 91 11.4 0.0 0.0 N 0.3 1003.2
04:30 12.7 91 11.3 0.0 0.0 N 0.3 1003.0
04:40 12.5 91 11.1 0.0 0.0 N 0.3 1002.9
04:50 12.4 91 11.0 0.0 0.0 N 0.3 1003.0
05:00 12.3 92 11.0 0.0 0.0 N 0.3 1003.1
05:10 12.3 92 11.0 0.0 0.0 N 0.3 1003.2
05:20 12.3 92 11.0 0.0 0.0 N 0.3 1003.5
05:30 12.3 92 11.0 0.0 0.0 N 0.3 1003.7
05:40 12.2 92 10.9 0.0 0.0 N 0.3 1003.9
05:50 12.1 93 11.0 0.0 0.0 N 0.3 1004.1
06:00 12.2 93 11.1 0.0 0.0 N 0.3 1004.1
06:10 12.4 93 11.3 0.0 0.0 N 0.3 1004.2
06:20 12.6 94 11.7 0.0 0.0 N 0.3 1004.3
06:30 12.9 94 12.0 0.0 0.0 N 0.3 1004.3
06:40 13.0 95 12.2 0.0 0.0 N 0.3 1004.4
06:50 13.2 95 12.4 0.0 0.0 N 0.3 1004.5
07:00 13.5 96 12.9 0.0 0.0 N 0.3 1004.6
07:10 13.6 96 13.0 0.0 0.0 N 0.3 1004.6
07:20 13.7 96 13.1 0.0 0.0 N 0.3 1004.7
07:30 13.7 96 13.1 0.0 0.0 N 0.3 1004.9
07:40 13.9 97 13.4 0.0 0.0 N 0.3 1005.0
07:50 14.0 96 13.4 0.0 0.0 N 0.3 1005.1
08:00 14.2 96 13.6 0.0 0.0 N 0.3 1005.2
08:10 14.3 96 13.7 0.0 0.0 N 0.3 1005.3
08:20 14.5 96 13.9 0.0 0.0 N 0.3 1005.5
08:30 14.7 96 14.1 0.0 0.0 N 0.3 1005.6
08:40 14.9 96 14.3 0.0 0.0 N 0.3 1005.7
08:50 15.1 95 14.3 0.0 0.0 N 0.3 1005.8
09:00 15.4 94 14.4 0.0 0.0 N 0.3 1005.8
09:10 15.7 94 14.7 0.0 0.0 N 0.3 1006.0
09:20 16.0 91 14.5 2.8 8.6 SSE 0.3 1006.0
09:30 16.3 89 14.5 3.0 9.7 ESE 0.3 1006.2
09:40 16.4 84 13.7 4.7 12.2 SE 0.3 1006.2
09:50 16.8 79 13.1 4.7 13.3 SSE 0.3 1006.3
10:00 17.0 76 12.7 2.0 6.1 SSE 0.0 1006.3
10:10 17.1 75 12.6 3.8 9.7 SE 0.0 1006.5
10:20 17.1 74 12.4 4.1 8.6 SSE 0.0 1006.3
10:30 17.3 73 12.4 3.4 13.3 SE 0.0 1006.3
10:40 17.4 73 12.5 4.1 12.2 SSE 0.0 1006.2
10:50 17.6 72 12.5 4.3 12.2 SSE 0.0 1006.2
11:00 18.0 69 12.2 8.5 14.8 SSE 0.0 1006.1
11:10 18.3 68 12.3 5.4 14.8 SE 0.0 1006.0
11:20 18.4 67 12.2 3.1 15.8 S 0.0 1005.9
11:30 18.8 68 12.8 6.0 18.4 SE 0.0 1006.0
11:40 19.1 65 12.4 3.8 17.3 S 0.0 1005.9
11:50 18.9 66 12.4 5.3 17.3 SSE 0.0 1005.8
12:00 19.1 64 12.1 6.1 14.8 S 0.0 1005.5
12:10 19.7 61 12.0 3.4 11.2 SSE 0.0 1005.4
12:20 20.0 57 11.2 4.4 18.4 SSE 0.0 1005.3
12:30 20.2 58 11.7 5.3 14.8 SSE 0.0 1005.1
12:40 20.5 58 12.0 4.4 14.8 SSE 0.0 1004.7
12:50 20.8 56 11.7 7.4 14.8 SE 0.0 1004.7
13:00 21.1 54 11.4 4.3 11.2 ESE 0.0 1004.6
13:10 21.2 53 11.3 3.7 12.2 E 0.0 1004.4
13:20 21.5 53 11.5 4.5 18.4 S 0.0 1004.3
13:30 21.7 53 11.7 5.3 14.8 E 0.0 1004.1
13:40 21.5 53 11.5 5.4 14.8 S 0.0 1003.9
13:50 22.0 52 11.7 2.8 15.8 SSE 0.0 1003.8
14:00 21.9 53 11.9 1.7 8.6 S 0.0 1003.5
14:10 21.6 54 11.9 4.0 14.8 SSW 0.0 1003.3
14:20 22.0 53 12.0 8.5 18.4 S 0.0 1003.3
14:30 21.8 55 12.4 4.0 11.2 SSW 0.0 1003.2
14:40 21.6 56 12.5 6.7 15.8 S 0.0 1003.0
14:50 21.4 57 12.5 4.0 15.8 SSW 0.0 1002.9
15:00 21.4 57 12.5 2.9 15.8 WSW 0.0 1002.7
15:10 21.4 57 12.5 1.4 7.2 SSW 0.0 1002.6
15:20 21.3 58 12.7 1.6 11.2 S 0.0 1002.5
15:30 21.1 58 12.5 1.1 14.8 ESE 0.0 1002.4
15:40 21.3 58 12.7 2.6 14.8 SSW 0.0 1002.4
15:50 21.2 58 12.6 2.4 13.3 SSW 0.0 1002.3
16:00 21.4 58 12.8 4.5 17.3 SSW 0.0 1002.2
16:10 21.5 58 12.9 1.3 9.7 SSW 0.0 1002.1
16:20 21.5 58 12.9 1.7 8.6 SSW 0.0 1002.1
16:30 21.4 59 13.1 2.0 9.7 SSE 0.0 1002.0
16:40 21.3 60 13.2 3.5 12.2 SSE 0.0 1001.8
16:50 21.4 60 13.3 2.5 11.2 S 0.0 1001.6
17:00 21.4 59 13.1 2.5 8.6 SSE 0.0 1001.5
17:10 21.6 58 13.0 3.7 11.2 S 0.0 1001.6
17:20 21.5 59 13.2 0.8 13.3 SW 0.0 1001.5
17:30 21.6 60 13.5 1.4 12.2 SSW 0.0 1001.3
17:40 21.5 60 13.4 2.2 12.2 SW 0.0 1001.2
17:50 21.4 60 13.3 0.9 6.1 W 0.0 1001.1
18:00 21.4 61 13.6 4.4 13.3 S 0.0 1001.1
18:10 21.4 61 13.6 1.0 6.1 SW 0.0 1001.0
18:20 21.4 61 13.6 1.0 7.2 NW 0.0 1001.0
18:30 21.4 60 13.3 4.0 13.3 S 0.0 1001.0
18:40 21.2 60 13.1 6.0 17.3 S 0.0 1001.0
18:50 20.9 62 13.4 5.3 17.3 S 0.0 1001.0
19:00 20.7 62 13.2 4.6 17.3 SE 0.0 1001.2
19:10 20.4 63 13.1 4.9 15.8 SSE 0.0 1001.1
19:20 20.0 64 13.0 5.5 17.3 SSW 0.0 1001.0
19:30 19.7 65 12.9 6.2 17.3 S 0.0 1001.0
19:40 19.1 66 12.6 7.9 22.0 SSE 0.0 1001.1
19:50 18.8 68 12.8 7.1 17.3 SSE 0.0 1001.2
20:00 18.5 69 12.7 4.6 15.8 SSE 0.0 1001.2
20:10 18.2 70 12.6 6.7 17.3 SSE 0.0 1001.4
20:20 18.0 70 12.5 5.0 15.8 SSE 0.0 1001.6
20:30 17.7 72 12.6 4.2 15.8 SSW 0.0 1001.7
20:40 17.6 73 12.7 5.0 11.2 SSE 0.0 1001.8
20:50 17.3 74 12.6 6.4 15.8 S 0.0 1002.5
21:00 17.3 74 12.6 4.4 11.2 SSE 0.0 1002.6
21:10 17.1 76 12.8 8.1 17.3 SSE 0.0 1002.9
21:20 16.9 77 12.9 5.0 12.2 SSE 0.0 1002.9
21:30 16.7 78 12.9 4.8 14.8 S 0.0 1004.2
21:40 16.6 79 13.0 5.0 15.8 S 0.0 1004.6
21:50 16.5 80 13.0 2.5 11.2 SSE 0.0 1004.3
22:00 16.4 80 12.9 3.6 12.2 S 0.0 1003.5
22:10 16.2 81 12.9 2.7 9.7 SSE 0.0 1004.2
22:20 16.1 82 13.0 0.4 5.0 WSW 0.0 1003.7
22:30 16.0 82 12.9 0.0 2.5 SSW 0.0 1004.0
22:40 15.9 83 13.0 0.0 2.5 S 0.0 1003.7
22:50 15.7 83 12.8 0.0 0.0 N 0.0 1003.4
23:00 15.5 84 12.8 0.0 0.0 N 0.0 1003.8
23:10 15.5 84 12.8 0.9 5.0 S 0.0 1002.9
23:20 15.4 84 12.7 0.2 3.6 S 0.0 1003.3
23:30 15.3 85 12.8 0.0 3.6 SSW 0.0 1002.6
23:40 15.2 85 12.7 0.1 5.0 SSE 0.0 1003.0
23:50 15.2 85 12.7 0.2 6.1 SE 0.0 1002.3